Time;durP1;ratioP1;P1;durP2;ratioP2;P2;SDS_P1;SDS_P2;PMS_P1;PMS_P2;Temp;Humidity;BMP_temperature;BMP_pressure;BME280_temperature;BME280_humidity;BME280_pressure;Samples;Min_cycle;Max_cycle;Signal;HPM_P1;HPM_P2
2021/07/19 00:01:39;;;;;;;9.98;8.00;;;;;;;19.00;88.75;96598.60;127715;1096;38988;-95
2021/07/19 00:04:11;;;;;;;10.30;7.45;;;;;;;18.99;89.00;96597.81;127728;1095;36430;-94
2021/07/19 00:06:42;;;;;;;11.25;8.30;;;;;;;19.03;88.93;96589.11;127853;1095;30377;-95
2021/07/19 00:09:14;;;;;;;10.78;7.58;;;;;;;19.03;88.95;96597.17;127694;1096;34593;-94
2021/07/19 00:11:46;;;;;;;9.93;7.53;;;;;;;19.09;88.93;96590.45;127709;1096;37020;-95
2021/07/19 00:14:18;;;;;;;8.80;6.83;;;;;;;19.05;88.82;96597.63;127926;1095;31842;-95
2021/07/19 00:16:50;;;;;;;12.13;8.28;;;;;;;18.93;88.79;96588.41;127781;1096;31892;-94
2021/07/19 00:19:21;;;;;;;11.63;8.65;;;;;;;18.80;89.09;96599.45;127746;1096;29327;-95
2021/07/19 00:21:53;;;;;;;12.35;7.93;;;;;;;18.74;89.42;96595.41;127811;1095;35002;-93
2021/07/19 00:24:27;;;;;;;11.40;8.05;;;;;;;18.76;89.45;96598.55;127665;1096;36079;-94
2021/07/19 00:26:58;;;;;;;12.08;8.48;;;;;;;18.71;89.60;96598.73;127579;1097;39278;-94
2021/07/19 00:29:30;;;;;;;12.58;8.08;;;;;;;18.69;89.72;96596.39;127687;1096;34254;-93
2021/07/19 00:32:02;;;;;;;11.73;8.30;;;;;;;18.70;90.00;96603.33;127725;1096;35445;-94
2021/07/19 00:34:35;;;;;;;10.55;7.90;;;;;;;18.77;90.09;96598.22;127704;1096;29612;-94
2021/07/19 00:37:07;;;;;;;11.83;7.90;;;;;;;18.78;89.75;96583.67;127666;1097;45869;-93
2021/07/19 00:39:38;;;;;;;8.40;7.27;;;;;;;18.79;89.98;96595.98;127636;1097;34980;-95
2021/07/19 00:42:10;;;;;;;9.53;6.97;;;;;;;18.80;90.33;96592.18;127766;1096;29985;-94
2021/07/19 00:44:41;;;;;;;11.53;7.78;;;;;;;18.74;90.01;96593.52;127741;1095;58835;-94
2021/07/19 00:47:13;;;;;;;12.80;8.08;;;;;;;18.68;90.45;96592.13;127708;1096;33838;-95
2021/07/19 00:49:47;;;;;;;12.38;8.08;;;;;;;18.58;90.79;96587.95;127716;1096;33288;-94
2021/07/19 00:52:18;;;;;;;13.38;8.50;;;;;;;18.50;91.06;96590.70;127683;1096;39552;-94
2021/07/19 00:54:51;;;;;;;11.43;8.90;;;;;;;18.44;91.14;96592.00;127646;1096;30752;-93
2021/07/19 00:57:24;;;;;;;12.33;8.20;;;;;;;18.49;91.27;96587.23;127655;1095;31766;-93
2021/07/19 00:59:57;;;;;;;10.60;7.95;;;;;;;18.51;91.02;96587.68;127685;1095;28371;-94
2021/07/19 01:02:30;;;;;;;13.30;8.33;;;;;;;18.57;91.06;96583.66;127597;1095;34622;-95
2021/07/19 01:05:03;;;;;;;11.30;7.63;;;;;;;18.56;91.08;96581.31;127628;1096;31191;-94
2021/07/19 01:07:37;;;;;;;10.63;7.90;;;;;;;18.51;91.13;96586.90;127597;1097;32473;-94
2021/07/19 01:10:17;;;;;;;11.08;8.53;;;;;;;18.45;91.37;96577.48;127644;1095;32533;-94
2021/07/19 01:12:50;;;;;;;10.40;8.38;;;;;;;18.46;91.55;96573.69;127617;1096;34524;-94
2021/07/19 01:15:23;;;;;;;11.40;7.90;;;;;;;18.46;91.63;96568.32;127662;1097;33797;-94
2021/07/19 01:17:55;;;;;;;11.63;8.75;;;;;;;18.43;91.46;96569.73;127719;1096;31775;-94
2021/07/19 01:20:33;;;;;;;11.60;8.00;;;;;;;18.43;91.34;96561.69;127681;1096;34267;-91
2021/07/19 01:23:44;;;;;;;12.00;7.48;;;;;;;18.44;91.48;96571.34;127636;1095;30757;-94
2021/07/19 01:26:32;;;;;;;12.78;7.88;;;;;;;18.53;91.67;96572.02;127303;1097;36841;-93
2021/07/19 01:29:06;;;;;;;11.08;8.00;;;;;;;18.51;91.52;96574.26;127646;1096;33017;-94
2021/07/19 01:31:42;;;;;;;10.63;8.18;;;;;;;18.47;91.74;96576.04;127688;1096;28676;-94
2021/07/19 01:34:22;;;;;;;12.00;8.43;;;;;;;18.37;91.80;96582.59;127676;1097;32523;-93
2021/07/19 01:36:59;;;;;;;13.10;8.70;;;;;;;18.33;91.86;96583.58;127632;1096;28720;-94
2021/07/19 01:39:33;;;;;;;10.20;7.73;;;;;;;18.33;92.04;96584.36;127567;1097;41799;-93
2021/07/19 01:42:07;;;;;;;12.75;8.55;;;;;;;18.33;91.75;96584.36;127561;1097;32099;-94
2021/07/19 01:44:39;;;;;;;11.35;8.20;;;;;;;18.34;92.01;96577.88;127644;1096;28199;-94
2021/07/19 01:47:13;;;;;;;11.18;8.38;;;;;;;18.32;91.97;96585.48;129651;1095;35987;-95
2021/07/19 01:49:46;;;;;;;13.15;8.43;;;;;;;18.31;91.99;96583.91;129732;1095;32610;-96
2021/07/19 01:52:19;;;;;;;11.95;8.23;;;;;;;18.35;92.08;96584.82;128581;1094;30706;-96
2021/07/19 01:54:51;;;;;;;10.95;8.05;;;;;;;18.36;92.15;96578.33;127739;1096;35438;-96
2021/07/19 01:57:24;;;;;;;11.08;8.80;;;;;;;18.32;92.19;96577.43;127659;1096;43604;-93
2021/07/19 01:59:57;;;;;;;12.30;8.63;;;;;;;18.25;92.16;96585.20;127780;1096;28071;-95
2021/07/19 02:02:30;;;;;;;10.65;8.23;;;;;;;18.25;92.42;96584.42;127616;1096;35415;-96
2021/07/19 02:05:02;;;;;;;14.48;8.60;;;;;;;18.17;92.33;96582.61;127720;1095;31503;-94
2021/07/19 02:07:34;;;;;;;11.20;8.50;;;;;;;18.14;92.31;96588.61;127666;1097;35349;-95
2021/07/19 02:10:10;;;;;;;10.38;8.28;;;;;;;18.18;92.55;96589.55;127668;1096;38688;-94
2021/07/19 02:12:45;;;;;;;12.15;8.35;;;;;;;18.19;92.32;96591.89;127938;1096;36679;-95
2021/07/19 02:15:19;;;;;;;9.80;8.00;;;;;;;18.24;92.47;96586.33;127778;1096;43285;-95
2021/07/19 02:17:52;;;;;;;12.48;8.35;;;;;;;18.28;92.40;96589.91;127668;1096;30737;-95
2021/07/19 02:20:27;;;;;;;10.25;7.90;;;;;;;18.30;92.28;96592.30;127655;1096;27197;-94
2021/07/19 02:23:02;;;;;;;10.85;7.90;;;;;;;18.33;92.25;96595.10;127638;1096;38263;-95
2021/07/19 02:25:36;;;;;;;10.63;8.18;;;;;;;18.38;92.28;96592.20;127633;1096;48573;-95
2021/07/19 02:28:09;;;;;;;11.03;8.28;;;;;;;18.42;92.08;96596.91;127817;1096;32957;-94
2021/07/19 02:30:42;;;;;;;13.38;8.75;;;;;;;18.42;91.91;96595.02;127764;1096;32103;-95
2021/07/19 02:33:19;;;;;;;10.53;8.13;;;;;;;18.39;91.80;96599.14;127743;1095;34702;-95
2021/07/19 02:35:53;;;;;;;12.83;9.03;;;;;;;18.40;91.85;96603.40;127676;1096;32182;-95
2021/07/19 02:38:28;;;;;;;11.60;8.07;;;;;;;18.43;92.02;96603.85;127719;1096;28943;-96
2021/07/19 02:41:01;;;;;;;13.28;8.45;;;;;;;18.44;91.94;96597.37;127741;1096;30524;-95
2021/07/19 02:43:34;;;;;;;9.73;7.65;;;;;;;18.45;91.99;96609.70;127812;1096;31565;-96
2021/07/19 02:46:07;;;;;;;10.90;8.13;;;;;;;18.42;91.80;96604.97;127679;1095;55423;-96
2021/07/19 02:48:40;;;;;;;12.00;9.38;;;;;;;18.43;91.93;96606.53;127666;1096;32700;-95
2021/07/19 02:51:14;;;;;;;9.48;8.13;;;;;;;18.47;91.78;96607.47;127714;1095;34680;-96
2021/07/19 02:53:50;;;;;;;10.70;8.00;;;;;;;18.46;91.84;96611.27;127752;1096;29433;-95
2021/07/19 02:56:23;;;;;;;10.78;8.65;;;;;;;18.45;92.01;96617.75;127784;1096;31034;-95
2021/07/19 02:58:55;;;;;;;11.15;7.90;;;;;;;18.47;92.07;96618.99;127726;1096;31774;-95
2021/07/19 03:01:28;;;;;;;10.80;8.83;;;;;;;18.53;92.31;96616.88;127644;1097;31369;-95
2021/07/19 03:04:02;;;;;;;10.48;8.08;;;;;;;18.54;92.06;96608.50;127674;1096;32769;-95
2021/07/19 03:06:37;;;;;;;10.58;8.40;;;;;;;18.56;92.10;96606.27;127627;1096;30103;-95
2021/07/19 03:09:15;;;;;;;12.25;8.08;;;;;;;18.55;91.88;96610.06;127717;1096;31490;-95
2021/07/19 03:11:51;;;;;;;10.75;7.48;;;;;;;18.52;91.79;96608.05;127604;1096;36624;-95
2021/07/19 03:14:25;;;;;;;11.33;8.53;;;;;;;18.48;91.86;96603.67;127687;1096;36773;-94
2021/07/19 03:16:57;;;;;;;11.93;7.83;;;;;;;18.45;91.90;96598.97;127668;1095;34950;-94
2021/07/19 03:19:29;;;;;;;11.93;8.30;;;;;;;18.42;91.87;96602.28;127683;1096;49057;-95
2021/07/19 03:22:03;;;;;;;9.70;7.77;;;;;;;18.43;92.07;96607.31;127632;1096;32318;-95
2021/07/19 03:24:36;;;;;;;9.93;7.08;;;;;;;18.42;92.21;96611.12;127616;1096;31595;-95
2021/07/19 03:27:08;;;;;;;10.83;7.85;;;;;;;18.40;92.17;96608.77;127694;1096;32682;-95
2021/07/19 03:29:39;;;;;;;10.93;7.38;;;;;;;18.43;92.37;96606.53;127734;1095;32415;-96
2021/07/19 03:32:11;;;;;;;11.43;8.13;;;;;;;18.39;92.45;96601.83;127715;1096;31727;-94
2021/07/19 03:34:44;;;;;;;9.68;7.45;;;;;;;18.42;92.50;96599.59;127676;1097;27794;-95
2021/07/19 03:37:18;;;;;;;11.15;7.90;;;;;;;18.47;92.54;96602.10;127648;1096;30104;-95
2021/07/19 03:39:52;;;;;;;10.00;7.20;;;;;;;18.51;92.56;96598.42;127644;1096;33187;-95
2021/07/19 03:42:24;;;;;;;10.48;7.58;;;;;;;18.43;92.46;96598.48;127699;1096;34895;-95
2021/07/19 03:44:57;;;;;;;10.30;7.30;;;;;;;18.46;92.91;96603.22;127538;1097;36507;-94
2021/07/19 03:47:29;;;;;;;12.50;7.45;;;;;;;18.47;92.82;96605.57;127679;1095;34738;-95
2021/07/19 03:50:03;;;;;;;10.55;6.83;;;;;;;18.49;92.81;96602.55;127615;1096;50046;-94
2021/07/19 03:52:37;;;;;;;9.43;7.08;;;;;;;18.51;92.68;96601.11;127625;1096;32782;-95
2021/07/19 03:55:11;;;;;;;12.18;6.80;;;;;;;18.52;92.35;96599.20;127615;1097;35531;-95
2021/07/19 03:57:44;;;;;;;12.50;7.65;;;;;;;18.55;92.27;96601.23;127748;1096;30901;-95
2021/07/19 04:00:19;;;;;;;8.75;6.88;;;;;;;18.60;92.42;96601.04;127618;1095;31475;-94
2021/07/19 04:02:53;;;;;;;9.30;7.05;;;;;;;18.59;92.08;96604.84;127655;1097;32155;-94
2021/07/19 04:05:27;;;;;;;13.40;7.98;;;;;;;18.58;92.27;96603.25;127700;1096;42069;-94
2021/07/19 04:07:58;;;;;;;9.68;6.70;;;;;;;18.66;92.42;96602.42;127635;1097;28826;-94
2021/07/19 04:10:30;;;;;;;9.60;6.55;;;;;;;18.68;91.67;96605.56;127658;1096;32958;-95
2021/07/19 04:13:06;;;;;;;10.03;6.05;;;;;;;18.68;91.71;96602.88;127659;1096;32641;-95
2021/07/19 04:15:45;;;;;;;8.55;5.55;;;;;;;18.70;91.25;96608.70;127593;1096;38386;-95
2021/07/19 04:18:16;;;;;;;8.98;5.58;;;;;;;18.76;91.69;96612.77;127619;1096;28489;-93
2021/07/19 04:20:49;;;;;;;8.18;5.88;;;;;;;18.84;91.92;96611.09;127597;1096;31184;-95
2021/07/19 04:23:21;;;;;;;7.55;5.23;;;;;;;18.84;91.37;96611.88;127702;1094;37091;-95
2021/07/19 04:25:53;;;;;;;9.97;5.47;;;;;;;18.84;91.39;96614.56;127606;1095;38991;-95
2021/07/19 04:28:25;;;;;;;8.23;5.45;;;;;;;18.89;91.50;96609.00;127694;1096;31056;-94
2021/07/19 04:30:58;;;;;;;7.40;5.23;;;;;;;18.97;91.93;96613.48;127630;1096;35965;-95
2021/07/19 04:33:29;;;;;;;8.03;5.95;;;;;;;18.98;91.59;96615.05;127719;1097;28902;-95
2021/07/19 04:36:01;;;;;;;9.95;6.30;;;;;;;18.93;91.01;96617.96;127672;1095;35576;-96
2021/07/19 04:38:33;;;;;;;10.10;6.50;;;;;;;18.91;91.36;96616.73;127697;1096;31237;-95
2021/07/19 04:41:04;;;;;;;8.45;6.38;;;;;;;18.94;91.66;96619.53;127682;1097;32835;-95
2021/07/19 04:43:36;;;;;;;10.43;6.48;;;;;;;18.91;91.59;96617.52;127681;1096;37539;-95
2021/07/19 04:46:07;;;;;;;8.70;6.10;;;;;;;18.93;92.08;96612.59;127778;1095;28641;-96
2021/07/19 04:48:39;;;;;;;8.53;6.27;;;;;;;18.94;91.96;96611.47;127653;1096;40426;-95
2021/07/19 04:51:10;;;;;;;9.85;6.45;;;;;;;18.97;91.89;96610.80;127768;1096;43902;-96
2021/07/19 04:53:44;;;;;;;12.43;6.23;;;;;;;18.99;91.84;96607.78;127757;1096;38832;-95
2021/07/19 04:56:17;;;;;;;7.48;5.78;;;;;;;19.07;92.15;96604.23;127715;1096;36237;-96
2021/07/19 04:58:52;;;;;;;9.78;6.43;;;;;;;19.11;91.65;96609.72;127743;1096;29035;-94
2021/07/19 05:01:28;;;;;;;8.00;5.95;;;;;;;19.01;91.32;96615.53;127733;1095;30221;-95
2021/07/19 05:04:01;;;;;;;8.53;6.28;;;;;;;18.92;91.21;96611.02;127726;1096;34698;-96
2021/07/19 05:06:34;;;;;;;9.43;6.05;;;;;;;18.90;91.21;96615.16;127690;1096;39177;-95
2021/07/19 05:09:06;;;;;;;7.78;5.78;;;;;;;18.93;91.52;96614.49;127658;1097;31074;-94
2021/07/19 05:11:39;;;;;;;9.63;6.23;;;;;;;19.02;91.75;96611.73;127729;1096;32107;-96
2021/07/19 05:14:10;;;;;;;9.15;7.10;;;;;;;19.03;91.95;96614.08;127780;1096;35742;-95
2021/07/19 05:16:42;;;;;;;8.93;6.03;;;;;;;19.10;91.77;96608.93;127796;1096;41437;-96
2021/07/19 05:19:15;;;;;;;10.85;6.60;;;;;;;19.10;90.61;96610.83;127748;1096;36158;-95
2021/07/19 05:21:47;;;;;;;9.90;6.88;;;;;;;19.12;90.36;96616.66;127633;1096;39653;-96
2021/07/19 05:24:18;;;;;;;9.23;6.60;;;;;;;19.16;90.43;96610.30;127704;1097;34306;-95
2021/07/19 05:26:50;;;;;;;11.63;6.85;;;;;;;19.19;90.11;96617.70;127651;1097;35855;-96
2021/07/19 05:29:21;;;;;;;8.53;6.50;;;;;;;19.22;90.05;96625.09;127611;1096;44257;-95
2021/07/19 05:31:53;;;;;;;9.25;6.40;;;;;;;19.23;89.71;96633.93;127747;1095;30006;-95
2021/07/19 05:34:25;;;;;;;12.25;7.70;;;;;;;19.19;89.32;96624.97;127636;1097;36927;-96
2021/07/19 05:36:56;;;;;;;9.88;7.08;;;;;;;19.13;89.18;96629.76;127793;1095;31590;-95
2021/07/19 05:39:28;;;;;;;10.07;6.53;;;;;;;19.11;89.14;96625.84;127720;1097;29506;-95
2021/07/19 05:42:00;;;;;;;10.10;6.05;;;;;;;18.99;88.75;96635.43;127649;1096;32052;-96
2021/07/19 05:44:31;;;;;;;9.60;6.25;;;;;;;18.89;88.91;96643.92;127703;1096;36087;-96
2021/07/19 05:47:03;;;;;;;13.55;6.23;;;;;;;18.85;89.21;96642.99;127603;1097;35653;-95
2021/07/19 05:49:35;;;;;;;8.38;6.00;;;;;;;18.87;89.17;96640.79;127681;1096;32579;-95
2021/07/19 05:52:07;;;;;;;8.93;6.43;;;;;;;18.87;88.91;96637.32;127656;1097;35064;-96
2021/07/19 05:54:38;;;;;;;10.50;6.50;;;;;;;18.80;88.95;96643.21;127596;1096;29984;-95
2021/07/19 05:57:10;;;;;;;8.27;6.20;;;;;;;18.81;89.22;96638.63;127643;1095;33382;-95
2021/07/19 05:59:41;;;;;;;10.58;7.50;;;;;;;18.85;89.62;96644.89;127700;1096;29028;-94
2021/07/19 06:02:14;;;;;;;11.28;7.35;;;;;;;18.92;89.73;96647.84;127645;1096;64439;-95
2021/07/19 06:04:46;;;;;;;10.93;8.03;;;;;;;18.98;89.95;96655.36;127573;1096;32554;-95
2021/07/19 06:07:17;;;;;;;10.28;7.23;;;;;;;19.05;89.34;96646.77;127660;1096;34429;-95
2021/07/19 06:09:49;;;;;;;13.05;8.13;;;;;;;19.10;88.85;96651.14;127600;1096;28772;-94
2021/07/19 06:12:20;;;;;;;10.87;7.90;;;;;;;19.13;88.75;96653.16;127670;1095;35511;-94
2021/07/19 06:14:52;;;;;;;12.97;9.03;;;;;;;19.21;88.75;96658.45;127596;1096;33989;-94
2021/07/19 06:17:23;;;;;;;13.33;9.15;;;;;;;19.24;88.01;96662.38;127673;1096;29777;-95
2021/07/19 06:19:55;;;;;;;12.28;9.63;;;;;;;19.22;87.82;96662.71;127755;1096;26329;-95
2021/07/19 06:22:26;;;;;;;13.00;9.50;;;;;;;19.23;87.76;96655.44;127676;1095;28175;-95
2021/07/19 06:24:57;;;;;;;11.57;9.17;;;;;;;19.37;88.13;96655.91;127688;1096;27680;-94
2021/07/19 06:27:29;;;;;;;11.38;8.48;;;;;;;19.55;87.83;96656.52;127768;1096;28413;-95
2021/07/19 06:30:00;;;;;;;12.48;8.63;;;;;;;19.56;87.12;96660.78;127737;1096;29072;-95
2021/07/19 06:32:32;;;;;;;10.60;7.78;;;;;;;19.65;87.26;96658.00;127636;1095;32892;-95
2021/07/19 06:35:03;;;;;;;11.53;8.73;;;;;;;19.67;86.98;96663.82;127652;1097;32394;-95
2021/07/19 06:37:35;;;;;;;15.43;9.27;;;;;;;19.57;86.36;96675.83;127751;1096;25621;-95
2021/07/19 06:40:09;;;;;;;14.45;10.33;;;;;;;19.32;86.36;96677.64;127676;1096;29487;-95
2021/07/19 06:42:41;;;;;;;14.05;10.03;;;;;;;19.19;87.08;96679.51;127793;1096;32377;-95
2021/07/19 06:45:15;;;;;;;14.23;10.50;;;;;;;19.12;86.84;96670.41;127678;1096;30326;-96
2021/07/19 06:47:46;;;;;;;14.30;10.75;;;;;;;19.13;87.26;96683.50;127624;1096;39143;-94
2021/07/19 06:50:18;;;;;;;13.45;10.78;;;;;;;19.17;87.66;96683.66;127640;1097;28743;-95
2021/07/19 06:52:49;;;;;;;16.18;10.65;;;;;;;19.25;88.01;96680.08;127651;1095;27420;-95
2021/07/19 06:55:21;;;;;;;15.08;10.75;;;;;;;19.30;87.86;96687.16;127715;1097;23825;-95
2021/07/19 06:57:52;;;;;;;14.88;10.63;;;;;;;19.30;87.15;96693.32;127705;1096;36318;-95
2021/07/19 07:00:24;;;;;;;14.48;10.08;;;;;;;19.32;87.36;96680.33;127634;1096;24591;-96
2021/07/19 07:02:56;;;;;;;14.13;10.58;;;;;;;19.41;87.74;96689.07;127717;1096;35325;-95
2021/07/19 07:05:27;;;;;;;13.33;10.00;;;;;;;19.54;87.69;96688.01;127722;1096;29467;-95
2021/07/19 07:07:59;;;;;;;12.58;9.60;;;;;;;19.59;87.24;96686.24;127771;1095;28314;-96
2021/07/19 07:10:30;;;;;;;11.03;8.45;;;;;;;19.59;86.93;96686.24;127707;1096;28597;-95
2021/07/19 07:13:07;;;;;;;14.85;9.70;;;;;;;19.52;86.27;96689.44;127653;1096;48206;-96
2021/07/19 07:15:40;;;;;;;12.80;9.00;;;;;;;19.50;86.79;96695.15;127657;1096;29778;-94
2021/07/19 07:18:12;;;;;;;14.10;9.70;;;;;;;19.44;86.51;96691.11;127785;1096;31432;-95
2021/07/19 07:20:45;;;;;;;14.05;10.00;;;;;;;19.34;86.38;96688.84;127736;1096;31996;-95
2021/07/19 07:23:16;;;;;;;13.08;9.80;;;;;;;19.29;86.43;96681.00;127636;1096;32390;-95
2021/07/19 07:25:48;;;;;;;13.18;9.98;;;;;;;19.34;86.56;96685.38;127695;1095;33207;-95
2021/07/19 07:28:19;;;;;;;13.18;9.40;;;;;;;19.43;86.69;96691.45;128931;1096;23395;-89
2021/07/19 07:30:50;;;;;;;13.58;9.10;;;;;;;19.55;86.80;96686.10;129766;1095;30878;-90
2021/07/19 07:33:22;;;;;;;13.58;9.55;;;;;;;19.70;86.92;96684.66;129481;1096;23795;-94
2021/07/19 07:35:54;;;;;;;13.80;7.50;;;;;;;19.80;86.26;96679.63;127648;1097;29746;-95
2021/07/19 07:38:25;;;;;;;11.48;7.20;;;;;;;20.21;86.26;96672.45;127651;1096;26484;-95
2021/07/19 07:40:58;;;;;;;10.05;7.55;;;;;;;20.35;86.16;96686.34;127554;1097;30574;-96
2021/07/19 07:43:30;;;;;;;13.90;7.65;;;;;;;20.42;85.34;96686.59;127629;1096;25806;-95
2021/07/19 07:46:02;;;;;;;12.25;8.80;;;;;;;20.33;83.75;96682.42;127705;1096;31269;-95
2021/07/19 07:48:35;;;;;;;10.98;8.30;;;;;;;20.22;84.05;96679.39;127693;1096;30773;-94
2021/07/19 07:51:07;;;;;;;11.95;8.20;;;;;;;20.14;84.18;96673.03;127726;1096;24867;-94
2021/07/19 07:53:39;;;;;;;10.98;8.30;;;;;;;20.11;84.43;96673.68;127715;1094;27383;-95
2021/07/19 07:56:11;;;;;;;12.63;9.00;;;;;;;20.07;84.34;96672.80;127780;1096;25709;-95
2021/07/19 07:58:42;;;;;;;11.63;8.75;;;;;;;20.04;83.89;96676.16;127775;1096;29548;-95
2021/07/19 08:01:14;;;;;;;13.37;9.00;;;;;;;19.93;84.24;96676.95;127811;1096;32722;-96
2021/07/19 08:03:46;;;;;;;13.30;8.67;;;;;;;19.81;83.94;96675.03;127757;1095;29660;-92
2021/07/19 08:06:17;;;;;;;14.48;9.68;;;;;;;19.73;84.05;96684.80;127705;1096;33833;-94
2021/07/19 08:08:48;;;;;;;13.23;8.83;;;;;;;19.76;84.55;96675.27;127710;1096;33030;-95
2021/07/19 08:11:20;;;;;;;14.48;8.98;;;;;;;19.88;84.57;96677.19;127597;1095;30023;-94
2021/07/19 08:13:52;;;;;;;15.38;9.73;;;;;;;19.98;84.57;96677.50;127695;1096;24648;-94
2021/07/19 08:16:23;;;;;;;15.25;9.85;;;;;;;20.04;84.24;96673.48;127725;1096;23102;-95
2021/07/19 08:18:55;;;;;;;12.58;8.75;;;;;;;20.12;84.76;96677.94;127611;1097;28673;-96
2021/07/19 08:21:26;;;;;;;12.10;8.70;;;;;;;20.22;84.50;96674.02;127623;1096;26075;-94
2021/07/19 08:23:58;;;;;;;18.23;9.53;;;;;;;20.16;83.49;96675.38;127692;1096;38385;-94
2021/07/19 08:26:30;;;;;;;15.43;8.60;;;;;;;20.05;83.09;96672.35;127632;1097;39972;-95
2021/07/19 08:29:02;;;;;;;14.13;9.18;;;;;;;19.97;83.34;96673.23;127649;1096;31068;-95
2021/07/19 08:31:35;;;;;;;12.53;9.58;;;;;;;19.92;83.42;96668.09;127676;1095;31248;-95
2021/07/19 08:34:07;;;;;;;12.00;8.00;;;;;;;19.94;84.10;96668.54;127682;1096;52673;-95
2021/07/19 08:36:38;;;;;;;14.28;8.68;;;;;;;20.00;83.93;96663.73;127672;1095;31707;-95
2021/07/19 08:39:11;;;;;;;15.77;9.30;;;;;;;20.02;83.94;96658.80;127758;1096;24624;-94
2021/07/19 08:41:42;;;;;;;12.60;8.73;;;;;;;20.09;83.99;96670.55;127700;1095;31263;-94
2021/07/19 08:44:14;;;;;;;13.33;8.55;;;;;;;20.06;83.71;96663.16;127759;1096;22818;-96
2021/07/19 08:46:46;;;;;;;12.33;8.35;;;;;;;19.97;83.76;96667.86;127768;1096;22905;-91
2021/07/19 08:49:18;;;;;;;11.85;8.18;;;;;;;19.95;83.95;96670.11;127474;1096;34925;-95
2021/07/19 08:51:49;;;;;;;11.43;8.30;;;;;;;19.89;83.83;96670.68;127656;1096;33236;-95
2021/07/19 08:54:22;;;;;;;12.87;8.93;;;;;;;19.86;84.16;96682.91;127702;1097;24887;-93
2021/07/19 08:56:55;;;;;;;13.45;9.23;;;;;;;19.91;84.28;96674.59;127644;1097;24568;-94
2021/07/19 08:59:26;;;;;;;11.93;8.80;;;;;;;19.93;84.21;96677.73;127626;1097;24411;-94
2021/07/19 09:02:01;;;;;;;13.40;8.80;;;;;;;20.01;84.05;96667.98;127615;1095;24625;-94
2021/07/19 09:04:34;;;;;;;10.08;8.15;;;;;;;20.08;84.60;96673.58;127648;1095;27102;-94
2021/07/19 09:07:06;;;;;;;11.40;8.07;;;;;;;20.18;85.03;96666.96;127677;1096;25178;-93
2021/07/19 09:09:38;;;;;;;13.63;8.63;;;;;;;20.29;85.17;96668.08;127631;1095;22922;-94
2021/07/19 09:12:10;;;;;;;13.30;9.48;;;;;;;20.39;85.50;96668.37;127613;1096;24218;-94
2021/07/19 09:14:49;;;;;;;12.23;8.90;;;;;;;20.47;84.73;96668.63;127619;1097;34449;-93
2021/07/19 09:17:26;;;;;;;15.30;9.73;;;;;;;20.51;84.18;96670.28;127614;1097;26423;-94
2021/07/19 09:19:59;;;;;;;11.65;8.90;;;;;;;20.57;84.15;96668.16;127641;1095;26293;-93
2021/07/19 09:22:33;;;;;;;13.33;9.13;;;;;;;20.70;84.26;96667.00;127622;1096;25228;-93
2021/07/19 09:25:16;;;;;;;11.65;8.70;;;;;;;20.84;84.35;96662.01;127681;1096;24197;-93
2021/07/19 09:27:58;;;;;;;14.00;9.48;;;;;;;21.10;83.75;96663.44;127621;1096;22931;-93
2021/07/19 09:30:30;;;;;;;11.03;9.18;;;;;;;21.24;82.72;96663.81;127664;1097;29502;-94
2021/07/19 09:33:04;;;;;;;11.90;8.80;;;;;;;21.44;84.05;96665.55;127635;1096;27519;-94
2021/07/19 09:35:40;;;;;;;12.75;9.33;;;;;;;21.56;82.29;96665.47;127631;1096;28849;-93
2021/07/19 09:38:14;;;;;;;12.63;9.10;;;;;;;21.72;82.29;96661.98;127667;1096;27355;-93
2021/07/19 09:40:48;;;;;;;13.60;9.25;;;;;;;21.91;82.32;96659.35;127606;1095;24115;-91
2021/07/19 09:43:23;;;;;;;11.98;9.15;;;;;;;21.97;80.64;96657.97;127619;1095;23202;-94
2021/07/19 09:46:01;;;;;;;11.28;8.48;;;;;;;22.14;81.87;96656.83;127598;1097;22752;-93
2021/07/19 09:48:34;;;;;;;13.00;8.60;;;;;;;22.38;81.64;96653.91;127603;1097;22832;-92
2021/07/19 09:51:07;;;;;;;13.65;8.55;;;;;;;22.69;80.51;96655.70;127624;1095;26138;-93
2021/07/19 09:53:41;;;;;;;10.85;8.70;;;;;;;22.37;77.85;96655.02;127583;1095;26261;-93
2021/07/19 09:56:15;;;;;;;11.43;8.00;;;;;;;22.33;77.63;96647.98;127683;1096;24391;-93
2021/07/19 09:58:49;;;;;;;11.80;8.08;;;;;;;22.37;77.64;96644.20;127591;1097;27522;-93
2021/07/19 10:01:31;;;;;;;9.68;8.18;;;;;;;22.32;77.20;96639.09;127614;1096;23813;-94
2021/07/19 10:04:11;;;;;;;11.80;8.20;;;;;;;22.44;78.47;96632.78;127594;1097;26270;-93
2021/07/19 10:06:44;;;;;;;9.88;7.68;;;;;;;22.41;76.69;96623.48;127599;1097;26082;-93
2021/07/19 10:09:17;;;;;;;9.98;7.85;;;;;;;22.33;76.85;96621.75;127567;1095;47749;-92
2021/07/19 10:11:52;;;;;;;10.43;7.63;;;;;;;22.61;76.47;96618.07;127614;1096;24162;-94
2021/07/19 10:14:31;;;;;;;9.95;7.45;;;;;;;22.88;76.73;96614.39;127528;1097;74365;-95
2021/07/19 10:17:03;;;;;;;12.10;7.60;;;;;;;22.78;75.18;96614.93;127578;1097;25067;-93
2021/07/19 10:19:35;;;;;;;10.20;7.48;;;;;;;22.82;75.63;96610.39;127588;1096;24404;-93
2021/07/19 10:22:07;;;;;;;10.98;7.83;;;;;;;22.79;75.22;96603.76;127640;1097;22844;-94
2021/07/19 10:24:39;;;;;;;10.45;7.30;;;;;;;22.84;75.89;96602.73;127601;1096;25567;-94
2021/07/19 10:27:17;;;;;;;11.00;7.53;;;;;;;22.97;75.96;96608.77;127622;1097;23545;-94
2021/07/19 10:29:50;;;;;;;11.95;7.58;;;;;;;22.85;75.85;96604.30;127622;1096;26449;-94
2021/07/19 10:32:24;;;;;;;10.60;7.23;;;;;;;22.92;75.38;96617.94;127572;1097;25937;-94
2021/07/19 10:34:57;;;;;;;10.10;7.13;;;;;;;23.08;75.63;96609.72;127606;1097;23347;-94
2021/07/19 10:37:35;;;;;;;11.70;7.75;;;;;;;22.94;74.47;96604.05;127607;1097;22809;-94
2021/07/19 10:40:13;;;;;;;9.78;6.85;;;;;;;22.86;75.84;96608.56;127615;1097;22927;-93
2021/07/19 10:42:47;;;;;;;12.83;7.13;;;;;;;23.20;76.70;96606.07;127677;1096;25638;-94
2021/07/19 10:45:20;;;;;;;12.00;6.85;;;;;;;23.52;76.17;96604.70;127639;1096;22822;-94
2021/07/19 10:47:56;;;;;;;8.35;6.18;;;;;;;23.55;75.07;96603.98;127561;1096;81759;-93
2021/07/19 10:50:29;;;;;;;8.10;5.85;;;;;;;23.49;75.16;96594.58;127636;1095;22833;-93
2021/07/19 10:53:01;;;;;;;8.93;5.75;;;;;;;23.48;74.65;96598.44;127574;1096;23748;-94
2021/07/19 10:55:34;;;;;;;7.50;5.45;;;;;;;23.51;74.88;96588.84;127576;1097;26283;-93
2021/07/19 10:58:09;;;;;;;9.70;5.80;;;;;;;23.73;75.52;96588.03;127607;1096;26457;-94
2021/07/19 11:00:43;;;;;;;9.73;6.03;;;;;;;23.82;72.65;96585.86;127621;1096;31455;-94
2021/07/19 11:03:17;;;;;;;7.23;5.53;;;;;;;23.86;71.70;96591.33;127628;1096;22971;-93
2021/07/19 11:05:53;;;;;;;8.30;5.70;;;;;;;23.88;72.23;96583.61;127575;1097;24262;-93
2021/07/19 11:08:27;;;;;;;9.50;5.40;;;;;;;23.93;71.64;96575.97;127616;1096;24874;-95
2021/07/19 11:11:00;;;;;;;7.85;5.60;;;;;;;23.93;71.11;96575.19;127615;1096;42965;-93
2021/07/19 11:13:34;;;;;;;8.38;5.38;;;;;;;23.92;72.09;96568.19;127578;1096;26874;-94
2021/07/19 11:16:18;;;;;;;11.60;5.75;;;;;;;24.20;72.22;96565.86;127574;1097;23359;-94
2021/07/19 11:19:01;;;;;;;7.60;5.07;;;;;;;24.28;71.88;96578.36;127606;1096;24393;-93
2021/07/19 11:21:35;;;;;;;9.63;5.40;;;;;;;24.17;70.87;96572.02;127614;1096;23964;-94
2021/07/19 11:24:13;;;;;;;8.03;5.30;;;;;;;23.99;70.72;96568.30;127593;1094;24153;-93
2021/07/19 11:26:57;;;;;;;7.48;5.13;;;;;;;23.84;71.19;96563.84;127749;1097;28375;-95
2021/07/19 11:29:35;;;;;;;7.33;4.70;;;;;;;23.74;71.54;96567.16;127561;1096;26252;-94
2021/07/19 11:32:23;;;;;;;8.13;5.80;;;;;;;23.64;71.44;96568.55;127719;1096;23276;-93
2021/07/19 11:35:05;;;;;;;8.33;5.48;;;;;;;23.60;71.57;96571.22;127600;1097;23503;-93
2021/07/19 11:37:40;;;;;;;10.45;5.75;;;;;;;23.46;70.89;96570.96;127612;1096;27711;-94
2021/07/19 11:40:13;;;;;;;7.88;5.18;;;;;;;23.44;71.35;96572.47;127640;1096;23955;-95
2021/07/19 11:42:46;;;;;;;11.23;5.60;;;;;;;23.43;71.31;96577.11;127665;1096;26954;-95
2021/07/19 11:45:19;;;;;;;10.65;5.18;;;;;;;23.47;70.62;96569.03;127593;1096;28445;-94
2021/07/19 11:47:53;;;;;;;10.13;5.55;;;;;;;23.56;70.50;96558.75;127605;1096;26052;-94